アリススプリングス の空港の天気 - METARとTAF

アリス・スプリングス空港 ( YBAS / ASP ) - オーストラリア ノーザンテリトリーアリススプリングス
飛行場実況気象(Metar)
観測時間08/05 11:00 ACST (08/05 01:30 UTC)
風向・風速北 5m/s
視程10km以上
天気現象
なし
気温25℃
湿度22%
気圧1010hPa
METARYBAS 050130Z AUTO 01009KT 9999 // NCD 25/02 Q1010 RF00.0/000.0
過去の天気等 Google飛行場航空写真 Wunderground天気予報

過去48時間のMETAR

飛行場予報(TAF)
発表時間: 8/05 09:01 ACST (8/04 23:31 UTC)
予報対象時間: 5日9時 ACST ~ 6日9時 ACST
風向・風速北 6m/s
視程10km以上
なし
5日9時 ACST ~ 5日10時 ACST に徐々に
風向・風速北北西 10m/s 瞬間風速 15m/s
視程10km以上
なし
5日17時 ACST から
風向・風速北北西 5m/s
視程10km以上
なし
6日8時 ACST から
風向・風速西 7m/s
視程10km以上
なし
5日9時 ACST ~ 6日6時 ACST に 確率 30% で一時的に
風向・風速不定 10m/s 瞬間風速 23m/s
視程4000m
天気現象雷雨
全天の4割程度の雲 雲底高度 910m
全天の4割程度の積乱雲 雲底高度 2440m
TAF YBAS 042331Z 0500/0600 35012KT CAVOK
BECMG 0500/0501 33020G30KT CAVOK
FM050800 34010KT CAVOK
FM052300 28014KT CAVOK
PROB30 TEMPO 0500/0521 VRB20G45KT 4000 TSRA SCT030 SCT080CB